createdAt,value
2023-02-14T00:09:52.649Z,91.93
2023-02-14T00:24:55.931Z,92.54
2023-02-14T00:39:59.118Z,92.81
2023-02-14T00:55:02.614Z,92.49
2023-02-14T01:10:06.423Z,93.67
2023-02-14T01:25:09.570Z,93.85
2023-02-14T01:40:14.147Z,94.24
2023-02-14T01:55:23.906Z,95.04
2023-02-14T02:10:27.071Z,95.75
2023-02-14T02:26:11.731Z,97.07
2023-02-14T02:41:46.373Z,98.77
2023-02-14T02:56:56.161Z,99.74
2023-02-14T03:12:30.059Z,99.75
2023-02-14T03:27:49.109Z,100.00
2023-02-14T03:42:57.492Z,99.93
2023-02-14T03:58:12.213Z,100.00
2023-02-14T04:13:15.370Z,100.00
2023-02-14T04:28:18.588Z,100.00
2023-02-14T04:43:21.679Z,100.00
2023-02-14T04:58:24.890Z,100.00
2023-02-14T05:13:28.763Z,100.00
2023-02-14T05:28:32.098Z,100.00
2023-02-14T05:43:35.495Z,100.00
2023-02-14T05:58:38.966Z,100.00
2023-02-14T06:13:42.445Z,100.00
2023-02-14T06:28:45.626Z,100.00
2023-02-14T06:43:49.056Z,100.00
2023-02-14T06:58:52.263Z,100.00
2023-02-14T07:13:55.563Z,100.00
2023-02-14T07:28:58.762Z,100.00
2023-02-14T07:44:02.160Z,100.00
2023-02-14T07:59:05.292Z,99.91
2023-02-14T08:14:08.540Z,99.83
2023-02-14T08:29:11.763Z,99.39
2023-02-14T08:44:16.680Z,99.09
2023-02-14T08:59:19.857Z,99.54
2023-02-14T09:14:24.714Z,98.93
2023-02-14T09:29:29.120Z,97.96
2023-02-14T09:44:54.283Z,97.10
2023-02-14T10:00:11.693Z,95.81
2023-02-14T10:15:21.614Z,94.27
2023-02-14T10:30:25.362Z,93.35
2023-02-14T10:45:40.275Z,92.07
2023-02-14T11:01:14.316Z,91.56
2023-02-14T11:16:33.123Z,90.23
2023-02-14T11:31:39.446Z,88.22
2023-02-14T11:46:52.753Z,85.74
2023-02-14T12:02:00.722Z,83.93
2023-02-14T12:17:44.697Z,79.56
2023-02-14T12:32:58.837Z,78.36
2023-02-14T12:48:21.264Z,74.84
2023-02-14T13:04:04.708Z,71.10
2023-02-14T13:19:41.186Z,68.86
2023-02-14T13:34:47.249Z,68.26
2023-02-14T13:50:06.118Z,63.57
2023-02-14T14:05:32.960Z,59.35
2023-02-14T14:20:44.107Z,53.64
2023-02-14T14:42:43.718Z,50.84
2023-02-14T14:57:52.755Z,53.03
2023-02-14T15:13:18.441Z,55.64
2023-02-14T15:28:30.034Z,58.25
2023-02-14T15:43:37.917Z,60.72
2023-02-14T15:58:41.327Z,62.99
2023-02-14T16:13:48.086Z,65.09
2023-02-14T16:28:51.238Z,67.38
2023-02-14T16:43:57.319Z,69.27
2023-02-14T16:59:01.372Z,70.67
2023-02-14T17:14:05.559Z,72.32
2023-02-14T17:29:09.047Z,74.01
2023-02-14T17:44:14.434Z,75.17
2023-02-14T17:59:18.292Z,76.21
2023-02-14T18:14:22.376Z,77.88
2023-02-14T18:29:25.721Z,78.67
2023-02-14T18:44:29.487Z,79.37
2023-02-14T18:59:33.570Z,80.54
2023-02-14T19:14:37.809Z,81.09
2023-02-14T19:29:42.324Z,80.27
2023-02-14T19:44:48.641Z,79.97
2023-02-14T19:59:53.858Z,80.24
2023-02-14T20:14:58.182Z,80.37
2023-02-14T20:30:01.995Z,80.54
2023-02-14T20:45:09.936Z,81.56
2023-02-14T21:00:13.744Z,83.02
2023-02-14T21:15:17.348Z,83.01
2023-02-14T21:30:21.338Z,83.72
2023-02-14T21:45:43.670Z,83.53
2023-02-14T22:00:48.422Z,83.34
2023-02-14T22:15:52.357Z,84.34
2023-02-14T22:31:00.359Z,84.97
2023-02-14T22:46:06.536Z,85.10
2023-02-14T23:01:18.955Z,85.27
2023-02-14T23:16:41.610Z,85.47
2023-02-14T23:31:44.912Z,86.14
2023-02-14T23:46:49.856Z,86.36
